createdAt,value
2018-01-18T00:02:42.938Z,99904.30
2018-01-18T00:07:44.258Z,99892.38
2018-01-18T00:12:45.571Z,99894.44
2018-01-18T00:17:47.678Z,99880.02
2018-01-18T00:22:48.991Z,99885.41
2018-01-18T00:27:50.306Z,99877.10
2018-01-18T00:32:51.606Z,99862.72
2018-01-18T00:37:52.932Z,99869.67
2018-01-18T00:42:54.235Z,99858.79
2018-01-18T00:47:56.340Z,99855.51
2018-01-18T00:52:58.381Z,99845.66
2018-01-18T00:57:59.709Z,99845.12
2018-01-18T01:03:01.038Z,99831.83
2018-01-18T01:08:02.367Z,99817.45
2018-01-18T01:13:03.675Z,99814.64
2018-01-18T01:18:05.033Z,99802.15
2018-01-18T01:23:06.347Z,99801.67
2018-01-18T01:28:07.655Z,99790.70
2018-01-18T01:33:09.017Z,99780.94
2018-01-18T01:38:10.383Z,99772.77
2018-01-18T01:43:11.747Z,99763.36
2018-01-18T01:48:13.858Z,99758.69
2018-01-18T01:53:15.928Z,99746.65
2018-01-18T01:58:17.250Z,99751.88
2018-01-18T02:03:19.322Z,99736.83
2018-01-18T02:08:20.658Z,99735.83
2018-01-18T02:13:21.980Z,99732.13
2018-01-18T02:18:23.300Z,99734.33
2018-01-18T02:23:24.623Z,99715.34
2018-01-18T02:28:25.928Z,99690.20
2018-01-18T02:33:27.245Z,99675.56
2018-01-18T02:38:28.554Z,99665.86
2018-01-18T02:43:29.855Z,99651.94
2018-01-18T02:48:31.268Z,99642.66
2018-01-18T02:53:32.612Z,99637.09
2018-01-18T02:58:33.939Z,99616.84
2018-01-18T03:03:36.008Z,99594.85
2018-01-18T03:08:37.352Z,99586.22
2018-01-18T03:13:38.713Z,99566.53
2018-01-18T03:18:40.765Z,99556.27
2018-01-18T03:23:42.080Z,99545.46
2018-01-18T03:28:43.427Z,99535.09
2018-01-18T03:33:44.784Z,99510.80
2018-01-18T03:38:46.122Z,99485.41
2018-01-18T03:43:47.462Z,99479.56
2018-01-18T03:48:48.816Z,99459.35
2018-01-18T03:53:50.171Z,99444.05
2018-01-18T03:58:51.492Z,99429.79
2018-01-18T04:03:52.863Z,99397.89
2018-01-18T04:08:54.216Z,99397.41
2018-01-18T04:13:56.263Z,99375.91
2018-01-18T04:18:57.578Z,99349.73
2018-01-18T04:23:58.881Z,99320.43
2018-01-18T04:29:00.203Z,99305.86
2018-01-18T04:34:02.257Z,99277.84
2018-01-18T04:39:03.631Z,99262.37
2018-01-18T04:44:04.924Z,99233.20
2018-01-18T04:49:06.226Z,99225.55
2018-01-18T04:54:07.554Z,99192.67
2018-01-18T04:59:09.622Z,99187.30
2018-01-18T05:04:10.974Z,99165.42
2018-01-18T05:09:12.317Z,99115.23
2018-01-18T05:14:13.696Z,99083.17
2018-01-18T05:19:16.005Z,99056.28
2018-01-18T05:24:17.380Z,99029.35
2018-01-18T05:29:18.708Z,99013.48
2018-01-18T05:34:20.046Z,98977.83
2018-01-18T05:39:21.376Z,98933.39
2018-01-18T05:44:22.697Z,98909.53
2018-01-18T05:49:24.762Z,98888.13
2018-01-18T05:54:26.073Z,98861.36
2018-01-18T05:59:27.379Z,98821.06
2018-01-18T06:04:29.490Z,98783.58
2018-01-18T06:09:31.578Z,98749.59
2018-01-18T06:14:32.886Z,98729.99
2018-01-18T06:19:34.974Z,98698.84
2018-01-18T06:24:37.020Z,98667.47
2018-01-18T06:29:38.343Z,98645.30
2018-01-18T06:34:39.687Z,98590.19
2018-01-18T06:39:41.087Z,98555.16
2018-01-18T06:44:42.418Z,98536.27
2018-01-18T06:49:43.879Z,98502.05
2018-01-18T06:54:45.215Z,98470.27
2018-01-18T06:59:46.597Z,98450.81
2018-01-18T07:04:47.923Z,98427.83
2018-01-18T07:09:50.043Z,98379.81
2018-01-18T07:14:51.365Z,98362.22
2018-01-18T07:19:52.759Z,98322.86
2018-01-18T07:24:54.319Z,98293.81
2018-01-18T07:29:55.695Z,98282.41
2018-01-18T07:34:57.752Z,98232.37
2018-01-18T07:39:59.087Z,98186.17
2018-01-18T07:45:01.140Z,98179.59
2018-01-18T07:50:02.467Z,98143.34
2018-01-18T07:55:04.531Z,98135.81
2018-01-18T08:00:06.089Z,98127.19
2018-01-18T08:05:07.490Z,98098.37
2018-01-18T08:10:08.815Z,98096.30
2018-01-18T08:15:10.208Z,98069.52
2018-01-18T08:20:11.591Z,98050.53
2018-01-18T08:25:12.943Z,98051.88
2018-01-18T08:30:14.293Z,98030.10
2018-01-18T08:35:15.859Z,98030.30
2018-01-18T08:40:17.182Z,97974.95
2018-01-18T08:45:18.630Z,97980.23
2018-01-18T08:50:20.395Z,97959.06
2018-01-18T08:55:22.999Z,97963.36
2018-01-18T09:00:24.379Z,97895.94
2018-01-18T09:05:26.197Z,97879.14
2018-01-18T09:10:28.301Z,97864.94
2018-01-18T09:15:30.263Z,97861.28
2018-01-18T09:20:32.219Z,97838.91
2018-01-18T09:25:34.491Z,97812.33
2018-01-18T09:30:35.843Z,97796.50
2018-01-18T09:35:37.166Z,97798.02
2018-01-18T09:40:38.543Z,97790.37
2018-01-18T09:45:39.949Z,97782.05
2018-01-18T09:50:41.308Z,97760.39
2018-01-18T09:55:42.676Z,97707.42
2018-01-18T10:00:44.011Z,97692.10
2018-01-18T10:05:45.364Z,97672.66
2018-01-18T10:10:46.750Z,97667.19
2018-01-18T10:15:48.075Z,97636.45
2018-01-18T10:20:49.426Z,97624.43
2018-01-18T10:25:50.747Z,97605.86
2018-01-18T10:30:52.073Z,97591.69
2018-01-18T10:35:53.517Z,97571.02
2018-01-18T10:40:54.868Z,97591.00
2018-01-18T10:45:56.223Z,97573.74
2018-01-18T10:50:57.552Z,97578.61
2018-01-18T10:55:59.713Z,97566.94
2018-01-18T11:01:01.040Z,97552.91
2018-01-18T11:06:03.168Z,97537.30
2018-01-18T11:11:04.514Z,97570.04
2018-01-18T11:16:05.868Z,97558.00
2018-01-18T11:21:07.191Z,97559.36
2018-01-18T11:26:08.607Z,97573.50
2018-01-18T11:31:10.715Z,97593.95
2018-01-18T11:36:12.112Z,97591.52
2018-01-18T11:41:14.257Z,97569.78
2018-01-18T11:46:15.606Z,97577.25
2018-01-18T11:51:18.131Z,97583.05
2018-01-18T11:56:20.234Z,97581.39
2018-01-18T12:01:21.572Z,97574.14
2018-01-18T12:06:23.011Z,97573.50
2018-01-18T12:11:25.070Z,97595.24
2018-01-18T12:16:26.425Z,97604.24
2018-01-18T12:21:28.508Z,97623.55
2018-01-18T12:26:29.811Z,97622.92
2018-01-18T12:31:31.875Z,97641.84
2018-01-18T12:36:33.221Z,97672.55
2018-01-18T12:41:35.306Z,97717.92
2018-01-18T12:46:37.362Z,97757.36
2018-01-18T12:51:38.689Z,97788.92
2018-01-18T12:56:40.031Z,97850.81
2018-01-18T13:01:41.360Z,97877.26
2018-01-18T13:06:42.683Z,97917.22
2018-01-18T13:11:44.753Z,98000.61
2018-01-18T13:16:46.071Z,98023.33
2018-01-18T13:21:48.879Z,98103.61
2018-01-18T13:26:50.372Z,98174.20
2018-01-18T13:31:52.347Z,98240.15
2018-01-18T13:36:54.680Z,98293.03
2018-01-18T13:41:56.536Z,98341.73
2018-01-18T13:46:58.537Z,98403.71
2018-01-18T13:52:00.538Z,98446.87
2018-01-18T13:57:02.530Z,98499.78
2018-01-18T14:02:04.711Z,98532.95
2018-01-18T14:07:07.450Z,98591.06
2018-01-18T14:12:09.164Z,98646.01
2018-01-18T14:17:10.830Z,98635.52
2018-01-18T14:22:12.676Z,98686.19
2018-01-18T14:27:14.076Z,98698.70
2018-01-18T14:32:15.478Z,98743.15
2018-01-18T14:37:17.294Z,98776.65
2018-01-18T14:42:20.199Z,98808.75
2018-01-18T14:47:22.131Z,98831.25
2018-01-18T14:52:23.480Z,98866.00
2018-01-18T14:57:24.845Z,98896.58
2018-01-18T15:02:26.182Z,98903.58
2018-01-18T15:07:27.523Z,98954.58
2018-01-18T15:12:29.610Z,98983.45
2018-01-18T15:17:30.934Z,98985.97
2018-01-18T15:22:32.255Z,99034.92
2018-01-18T15:27:33.631Z,99049.24
2018-01-18T15:32:34.972Z,99077.75
2018-01-18T15:37:36.340Z,99084.13
2018-01-18T15:42:37.708Z,99109.63
2018-01-18T15:47:39.075Z,99138.73
2018-01-18T15:52:40.413Z,99147.84
2018-01-18T15:57:41.801Z,99168.27
2018-01-18T16:02:43.131Z,99187.23
2018-01-18T16:07:44.539Z,99202.04
2018-01-18T16:12:45.864Z,99198.13
2018-01-18T16:17:47.206Z,99215.02
2018-01-18T16:22:49.310Z,99219.24
2018-01-18T16:27:51.367Z,99240.81
2018-01-18T16:32:52.966Z,99244.13
2018-01-18T16:37:55.498Z,99253.95
2018-01-18T16:42:57.275Z,99265.13
2018-01-18T16:47:59.105Z,99279.45
2018-01-18T16:53:00.863Z,99289.92
2018-01-18T16:58:03.571Z,99298.48
2018-01-18T17:03:05.604Z,99308.66
2018-01-18T17:08:07.490Z,99311.48
2018-01-18T17:13:09.436Z,99318.25
2018-01-18T17:18:11.283Z,99319.33
2018-01-18T17:23:13.172Z,99325.98
2018-01-18T17:28:15.196Z,99330.84
2018-01-18T17:33:17.052Z,99345.11
2018-01-18T17:38:19.161Z,99358.58
2018-01-18T17:43:21.075Z,99374.69
2018-01-18T17:48:23.446Z,99367.09
2018-01-18T17:53:25.211Z,99379.78
2018-01-18T17:58:27.164Z,99385.92
2018-01-18T18:03:29.635Z,99379.55
2018-01-18T18:08:31.732Z,99395.62
2018-01-18T18:13:33.592Z,99399.34
2018-01-18T18:18:35.675Z,99410.28
2018-01-18T18:23:38.556Z,99421.96
2018-01-18T18:28:40.305Z,99429.33
2018-01-18T18:33:42.616Z,99430.37
2018-01-18T18:38:45.310Z,99442.83
2018-01-18T18:43:48.429Z,99449.11
2018-01-18T18:48:50.769Z,99460.27
2018-01-18T18:53:53.505Z,99465.17
2018-01-18T18:58:56.288Z,99471.95
2018-01-18T19:03:58.116Z,99472.61
2018-01-18T19:08:59.704Z,99488.98
2018-01-18T19:14:01.189Z,99480.89
2018-01-18T19:19:02.683Z,99492.61
2018-01-18T19:24:04.313Z,99502.44
2018-01-18T19:29:06.674Z,99506.75
2018-01-18T19:34:08.465Z,99501.95
2018-01-18T19:39:10.665Z,99505.86
2018-01-18T19:44:13.183Z,99509.44
2018-01-18T19:49:14.567Z,99503.84
2018-01-18T19:54:15.930Z,99522.63
2018-01-18T19:59:17.255Z,99508.92
2018-01-18T20:04:18.583Z,99527.31
2018-01-18T20:09:19.941Z,99526.61
2018-01-18T20:14:21.999Z,99534.64
2018-01-18T20:19:23.812Z,99548.59
2018-01-18T20:24:25.146Z,99549.14
2018-01-18T20:29:28.049Z,99556.44
2018-01-18T20:34:29.400Z,99566.47
2018-01-18T20:39:30.775Z,99574.34
2018-01-18T20:44:32.161Z,99570.77
2018-01-18T20:49:33.524Z,99581.77
2018-01-18T20:54:35.617Z,99585.42
2018-01-18T20:59:36.939Z,99589.52
2018-01-18T21:04:38.281Z,99597.13
2018-01-18T21:09:39.616Z,99594.09
2018-01-18T21:14:41.723Z,99608.31
2018-01-18T21:19:43.804Z,99609.37
2018-01-18T21:24:45.168Z,99614.84
2018-01-18T21:29:46.543Z,99617.08
2018-01-18T21:34:47.892Z,99619.72
2018-01-18T21:39:50.044Z,99622.58
2018-01-18T21:44:51.383Z,99632.93
2018-01-18T21:49:53.439Z,99634.17
2018-01-18T21:54:54.810Z,99644.63
2018-01-18T21:59:56.206Z,99658.11
2018-01-18T22:04:57.567Z,99660.71
2018-01-18T22:09:58.985Z,99652.02
2018-01-18T22:15:00.409Z,99658.84
2018-01-18T22:20:01.827Z,99657.70
2018-01-18T22:25:03.258Z,99665.28
2018-01-18T22:30:04.583Z,99652.41
2018-01-18T22:35:05.892Z,99653.58
2018-01-18T22:40:07.233Z,99656.03
2018-01-18T22:45:08.579Z,99649.38
2018-01-18T22:50:10.657Z,99652.66
2018-01-18T22:55:12.000Z,99650.22
2018-01-18T23:00:17.355Z,99657.81
2018-01-18T23:05:18.710Z,99663.66
2018-01-18T23:10:20.023Z,99666.89
2018-01-18T23:15:21.351Z,99661.22
2018-01-18T23:20:22.708Z,99670.69
2018-01-18T23:25:24.033Z,99675.92
2018-01-18T23:30:25.387Z,99681.16
2018-01-18T23:35:26.811Z,99681.02
2018-01-18T23:40:28.135Z,99684.97
2018-01-18T23:45:29.660Z,99698.70
2018-01-18T23:50:31.010Z,99693.52
2018-01-18T23:55:32.339Z,99694.32
